»·PEaware :: ASA611 KPDX-KBOI

ASA611 :: KPDX-KBOI

FLIGHT INFORMATION

Flight Status: Arrived
Operator:
Alaska Airlines
More flights by this operator :: More flights under this callsign
Pilot: Pratham R. (19019)
Aircraft: BOEING 737-700
(B737)
More flights by this aircraft type
Origin: KPDX Portland Intl
United States
Destination: KBOI Boise Air Terminal/Gowen
United States
More flights between these airports :: More routes between these airports
Route: WHAMY4 IMB HOSTS PARMO3
File this flight plan on PilotEdge
Remarks: RMK / SIMBRIEF
Altitude:
(Current/Filed)
39,000ft
Speed:
(Current/Filed)
444kts
Departed: 18-Jul-20 08:23 PM
Arrived: 18-Jul-20 09:18 PM
Distance/Time
Traveled:
298nm/0:54
Distance/Time
To Go:
Arrived

Flight Plot

Page will automatically refresh every two minutes.

Flight plan parsing failed; only flown route is shown


Map Options




Map Legend


Flown Route
Filed Route
Departure Airport
Arrival Airport
Navaid (VOR, NDB)
Fix

Horizontal Profiles

Position Reports

Time Latitude Longitude Heading Altitude Ground
Speed
18-Jul-20 19:04 45.589461 -122.596358 209 37ft 0kts
18-Jul-20 19:05 45.589461 -122.596358 209 37ft 0kts
18-Jul-20 19:06 45.589461 -122.596358 209 37ft 0kts
18-Jul-20 19:07 45.589461 -122.596358 209 37ft 0kts
18-Jul-20 19:08 45.589461 -122.596358 209 37ft 0kts
18-Jul-20 19:09 45.589461 -122.596358 209 37ft 0kts
18-Jul-20 19:10 45.589461 -122.596358 209 37ft 0kts
18-Jul-20 19:11 45.589461 -122.596358 209 37ft 0kts
18-Jul-20 19:12 45.589461 -122.596358 209 37ft 0kts
18-Jul-20 19:13 45.589461 -122.596358 209 37ft 0kts
18-Jul-20 19:14 45.589461 -122.596358 209 37ft 0kts
18-Jul-20 19:15 45.589461 -122.596358 209 37ft 0kts
18-Jul-20 19:16 45.589461 -122.596358 209 37ft 0kts
18-Jul-20 19:17 45.589461 -122.596358 209 37ft 0kts
18-Jul-20 19:18 45.589461 -122.596358 209 37ft 0kts
18-Jul-20 19:19 45.589461 -122.596358 209 37ft 0kts
18-Jul-20 19:20 45.589461 -122.596358 209 37ft 0kts
18-Jul-20 19:21 45.589461 -122.596358 209 37ft 0kts
18-Jul-20 19:22 45.589461 -122.596358 209 37ft 0kts
18-Jul-20 19:23 45.589461 -122.596358 209 37ft 0kts
18-Jul-20 19:24 45.589461 -122.596358 209 37ft 0kts
18-Jul-20 19:25 45.589461 -122.596358 209 37ft 0kts
18-Jul-20 19:26 45.589461 -122.596358 209 37ft 0kts
18-Jul-20 19:27 45.589461 -122.596358 209 37ft 0kts
18-Jul-20 19:29 45.589461 -122.596358 209 37ft 0kts
18-Jul-20 19:30 45.589461 -122.596358 209 37ft 0kts
18-Jul-20 19:31 45.589461 -122.596358 209 37ft 0kts
18-Jul-20 19:32 45.589461 -122.596358 209 37ft 0kts
18-Jul-20 19:33 45.589461 -122.596358 209 37ft 0kts
18-Jul-20 19:34 45.589461 -122.596358 209 37ft 0kts
18-Jul-20 19:35 45.589461 -122.596358 209 37ft 0kts
18-Jul-20 19:36 45.589461 -122.596358 209 37ft 0kts
18-Jul-20 19:37 45.589461 -122.596358 209 37ft 0kts
18-Jul-20 19:38 45.589461 -122.596358 209 37ft 0kts
18-Jul-20 19:39 45.589461 -122.596358 209 37ft 0kts
18-Jul-20 19:40 45.589461 -122.596358 209 37ft 0kts
18-Jul-20 19:41 45.589461 -122.596358 209 37ft 0kts
18-Jul-20 19:42 45.589461 -122.596358 209 37ft 0kts
18-Jul-20 19:42 45.589461 -122.596358 209 37ft 0kts
18-Jul-20 19:44 45.589461 -122.596358 209 37ft 0kts
18-Jul-20 19:45 45.589461 -122.596358 209 37ft 0kts
18-Jul-20 19:45 45.589461 -122.596358 209 37ft 0kts
18-Jul-20 19:46 45.589461 -122.596358 209 37ft 0kts
18-Jul-20 19:48 45.589461 -122.596358 209 37ft 0kts
18-Jul-20 19:48 45.589461 -122.596358 209 37ft 0kts
18-Jul-20 19:49 45.589461 -122.596358 209 37ft 0kts
18-Jul-20 19:50 45.589461 -122.596358 209 37ft 0kts
18-Jul-20 19:51 45.589461 -122.596358 209 37ft 0kts
18-Jul-20 19:52 45.589461 -122.596358 209 37ft 0kts
18-Jul-20 19:53 45.589461 -122.596358 209 37ft 0kts
18-Jul-20 19:55 45.589461 -122.596358 209 37ft 0kts
18-Jul-20 19:55 45.589461 -122.596358 209 37ft 0kts
18-Jul-20 19:56 45.589461 -122.596358 209 36ft 0kts
18-Jul-20 19:57 45.589461 -122.596358 209 36ft 0kts
18-Jul-20 19:58 45.589461 -122.596358 209 36ft 0kts
18-Jul-20 19:59 45.589461 -122.596358 209 36ft 0kts
18-Jul-20 20:00 45.589461 -122.596358 209 36ft 0kts
18-Jul-20 20:01 45.589461 -122.596358 209 36ft 0kts
18-Jul-20 20:02 45.589461 -122.596358 209 36ft 0kts
18-Jul-20 20:03 45.589461 -122.596358 209 36ft 0kts
18-Jul-20 20:04 45.589461 -122.596358 209 36ft 0kts
18-Jul-20 20:05 45.589461 -122.596358 209 36ft 0kts
18-Jul-20 20:06 45.589461 -122.596358 209 36ft 0kts
18-Jul-20 20:07 45.589461 -122.596358 209 37ft 0kts
18-Jul-20 20:08 45.589763 -122.596112 209 37ft 2kts
18-Jul-20 20:09 45.589886 -122.595470 302 37ft 1kts
18-Jul-20 20:10 45.589865 -122.595422 299 37ft 0kts
18-Jul-20 20:11 45.589865 -122.595422 299 37ft 0kts
18-Jul-20 20:12 45.590181 -122.596216 299 37ft 11kts
18-Jul-20 20:13 45.590599 -122.601237 206 37ft 11kts
18-Jul-20 20:14 45.588049 -122.597898 118 37ft 22kts
18-Jul-20 20:15 45.584580 -122.590755 130 37ft 20kts
18-Jul-20 20:16 45.581851 -122.584067 118 37ft 11kts
18-Jul-20 20:17 45.581466 -122.583609 170 36ft 0kts
18-Jul-20 20:18 45.581466 -122.583609 170 36ft 0kts
18-Jul-20 20:19 45.581457 -122.583607 170 36ft 0kts
18-Jul-20 20:20 45.581456 -122.583607 170 36ft 0kts
18-Jul-20 20:21 45.581234 -122.583633 194 36ft 4kts
18-Jul-20 20:22 45.584349 -122.593702 298 37ft 122kts
18-Jul-20 20:23 45.606823 -122.648745 302 2038ft 190kts
18-Jul-20 20:24 45.640436 -122.727728 300 4285ft 258kts
18-Jul-20 20:25 45.666791 -122.826052 274 7512ft 282kts
18-Jul-20 20:26 45.633193 -122.923522 203 10537ft 320kts
18-Jul-20 20:27 45.549141 -122.877582 138 13460ft 351kts
18-Jul-20 20:28 45.498825 -122.755143 112 16548ft 372kts
18-Jul-20 20:29 45.456693 -122.619191 113 19340ft 393kts
18-Jul-20 20:30 45.410598 -122.471623 113 21961ft 412kts
18-Jul-20 20:31 45.363064 -122.320286 114 23090ft 425kts
18-Jul-20 20:32 45.314769 -122.167356 114 24348ft 431kts
18-Jul-20 20:33 45.264431 -122.008977 115 26481ft 448kts
18-Jul-20 20:34 45.219078 -121.840933 110 28399ft 464kts
18-Jul-20 20:35 45.174431 -121.666776 110 30151ft 478kts
18-Jul-20 20:36 45.128850 -121.490458 111 32014ft 485kts
18-Jul-20 20:37 45.081987 -121.310484 112 34241ft 478kts
18-Jul-20 20:38 45.036361 -121.136495 112 36317ft 467kts
18-Jul-20 20:39 44.991346 -120.966209 112 37956ft 461kts
18-Jul-20 20:40 44.946386 -120.797397 111 39035ft 465kts
18-Jul-20 20:41 44.900024 -120.624483 111 39077ft 471kts
18-Jul-20 20:42 44.853587 -120.452558 111 39114ft 469kts
18-Jul-20 20:43 44.806935 -120.280980 112 39143ft 470kts
18-Jul-20 20:44 44.759783 -120.108818 112 38574ft 472kts
18-Jul-20 20:45 44.712450 -119.937246 112 36673ft 468kts
18-Jul-20 20:46 44.665884 -119.769650 112 34093ft 463kts
18-Jul-20 20:47 44.616808 -119.602519 113 30953ft 468kts
18-Jul-20 20:48 44.566899 -119.432167 113 27401ft 474kts
18-Jul-20 20:49 44.517083 -119.262665 113 24272ft 459kts
18-Jul-20 20:50 44.469473 -119.101863 113 24172ft 454kts
18-Jul-20 20:51 44.424322 -118.950300 115 24175ft 401kts
18-Jul-20 20:52 44.379393 -118.800474 115 23774ft 432kts
18-Jul-20 20:53 44.334853 -118.652641 115 22122ft 405kts
18-Jul-20 20:54 44.291322 -118.509060 114 20662ft 394kts
18-Jul-20 20:55 44.248654 -118.369147 114 19146ft 385kts
18-Jul-20 20:56 44.207639 -118.235380 114 17852ft 376kts
18-Jul-20 20:57 44.166653 -118.102382 114 16643ft 370kts
18-Jul-20 20:58 44.126213 -117.971821 114 15432ft 364kts
18-Jul-20 20:59 44.086314 -117.843646 114 14349ft 359kts
18-Jul-20 21:00 44.046557 -117.716538 113 13338ft 356kts
18-Jul-20 21:01 44.007089 -117.590971 113 12328ft 352kts
18-Jul-20 21:02 43.967681 -117.468592 114 11322ft 344kts
18-Jul-20 21:03 43.929007 -117.347185 114 10310ft 341kts
18-Jul-20 21:04 43.890832 -117.227226 114 9357ft 336kts
18-Jul-20 21:05 43.856835 -117.120884 115 8477ft 286kts
18-Jul-20 21:06 43.824394 -117.020239 113 7993ft 286kts
18-Jul-20 21:07 43.791380 -116.919006 114 7986ft 285kts
18-Jul-20 21:08 43.758933 -116.822571 114 6965ft 266kts
18-Jul-20 21:09 43.728307 -116.731225 114 5822ft 258kts
18-Jul-20 21:10 43.698769 -116.641930 113 4999ft 252kts
18-Jul-20 21:11 43.674521 -116.552026 112 4987ft 249kts
18-Jul-20 21:12 43.646971 -116.468833 114 5005ft 230kts
18-Jul-20 21:13 43.621164 -116.392727 114 4964ft 198kts
18-Jul-20 21:14 43.601785 -116.328864 112 4323ft 167kts
18-Jul-20 21:15 43.583015 -116.274475 113 3394ft 154kts
18-Jul-20 21:16 43.565817 -116.224079 114 2849ft 82kts
18-Jul-20 21:17 43.564614 -116.217284 328 2855ft 4kts
18-Jul-20 21:18 43.566363 -116.220868 56 2852ft 6kts
18-Jul-20 21:19 43.566866 -116.219743 31 2852ft 0kts
18-Jul-20 21:20 43.566870 -116.219740 31 2852ft 0kts
18-Jul-20 21:21 43.566870 -116.219740 31 2852ft 0kts
18-Jul-20 21:22 43.566870 -116.219740 31 2852ft 0kts
18-Jul-20 21:23 43.566870 -116.219740 31 2852ft 0kts
18-Jul-20 21:25 43.566870 -116.219740 31 2852ft 0kts

Navigation Log

Ident Type
Flight plan parsing failed, navigation log unavailable